createdAt,value
2017-11-06T00:01:45.960Z,1.43
2017-11-06T00:04:14.297Z,1.40
2017-11-06T00:06:42.577Z,1.20
2017-11-06T00:09:10.952Z,1.10
2017-11-06T00:11:39.252Z,1.10
2017-11-06T00:14:07.704Z,1.20
2017-11-06T00:16:36.020Z,1.10
2017-11-06T00:19:04.601Z,1.00
2017-11-06T00:21:34.624Z,1.30
2017-11-06T00:24:03.701Z,1.13
2017-11-06T00:26:32.319Z,1.20
2017-11-06T00:29:00.968Z,1.30
2017-11-06T00:31:29.341Z,1.20
2017-11-06T00:33:57.659Z,1.30
2017-11-06T00:36:26.046Z,1.30
2017-11-06T00:38:54.325Z,1.20
2017-11-06T00:41:22.604Z,1.33
2017-11-06T00:43:50.899Z,1.30
2017-11-06T00:46:19.204Z,1.10
2017-11-06T00:48:47.664Z,1.20
2017-11-06T00:51:15.971Z,1.17
2017-11-06T00:53:44.406Z,1.00
2017-11-06T00:56:12.716Z,1.37
2017-11-06T00:58:40.973Z,1.00
2017-11-06T01:01:09.298Z,1.17
2017-11-06T01:03:37.571Z,1.20
2017-11-06T01:06:05.863Z,1.27
2017-11-06T01:08:34.127Z,1.00
2017-11-06T01:11:02.412Z,1.10
2017-11-06T01:13:30.681Z,1.50
2017-11-06T01:15:58.991Z,1.17
2017-11-06T01:18:27.353Z,1.00
2017-11-06T01:20:55.659Z,1.40
2017-11-06T01:23:23.935Z,1.20
2017-11-06T01:25:52.248Z,1.27
2017-11-06T01:28:20.535Z,1.03
2017-11-06T01:30:48.852Z,1.10
2017-11-06T01:33:17.174Z,1.27
2017-11-06T01:35:45.671Z,1.17
2017-11-06T01:38:14.144Z,1.20
2017-11-06T01:40:42.504Z,1.33
2017-11-06T01:43:10.842Z,1.20
2017-11-06T01:45:39.155Z,1.20
2017-11-06T01:48:07.450Z,1.07
2017-11-06T01:50:35.823Z,1.20
2017-11-06T01:53:04.080Z,1.00
2017-11-06T01:55:32.372Z,1.20
2017-11-06T01:58:00.823Z,1.20
2017-11-06T02:00:29.149Z,1.20
2017-11-06T02:02:57.748Z,1.07
2017-11-06T02:05:28.965Z,1.10
2017-11-06T02:07:57.326Z,1.10
2017-11-06T02:10:25.608Z,1.00
2017-11-06T02:12:53.957Z,1.00
2017-11-06T02:15:22.425Z,1.00
2017-11-06T02:17:50.736Z,1.10
2017-11-06T02:20:19.377Z,1.10
2017-11-06T02:22:47.644Z,1.00
2017-11-06T02:25:15.940Z,1.10
2017-11-06T02:27:44.224Z,1.10
2017-11-06T02:30:12.523Z,1.20
2017-11-06T02:32:41.137Z,1.07
2017-11-06T02:35:09.455Z,1.20
2017-11-06T02:37:37.741Z,1.20
2017-11-06T02:40:06.084Z,1.00
2017-11-06T02:42:34.372Z,1.17
2017-11-06T02:45:02.792Z,1.30
2017-11-06T02:47:31.289Z,1.10
2017-11-06T02:49:59.681Z,1.00
2017-11-06T02:52:28.284Z,1.10
2017-11-06T02:54:56.720Z,1.10
2017-11-06T02:57:25.355Z,1.20
2017-11-06T02:59:53.623Z,1.20
2017-11-06T03:02:21.946Z,1.27
2017-11-06T03:04:50.227Z,1.03
2017-11-06T03:07:18.584Z,1.00
2017-11-06T03:09:46.883Z,1.00
2017-11-06T03:12:15.209Z,1.10
2017-11-06T03:14:43.488Z,1.10
2017-11-06T03:17:11.953Z,1.20
2017-11-06T03:19:40.278Z,1.10
2017-11-06T03:22:08.600Z,1.00
2017-11-06T03:24:37.372Z,1.10
2017-11-06T03:27:05.669Z,1.10
2017-11-06T03:29:33.960Z,1.33
2017-11-06T03:32:02.248Z,1.10
2017-11-06T03:34:30.504Z,1.10
2017-11-06T03:36:58.828Z,1.10
2017-11-06T03:39:27.123Z,1.23
2017-11-06T03:41:55.420Z,1.00
2017-11-06T03:44:23.676Z,1.10
2017-11-06T03:46:51.971Z,1.10
2017-11-06T03:49:20.404Z,1.00
2017-11-06T03:51:48.724Z,1.20
2017-11-06T03:54:17.013Z,0.93
2017-11-06T03:56:45.351Z,0.97
2017-11-06T03:59:13.709Z,1.20
2017-11-06T04:01:42.651Z,1.10
2017-11-06T04:04:10.959Z,1.37
2017-11-06T04:06:39.515Z,1.00
2017-11-06T04:09:07.876Z,1.27
2017-11-06T04:11:36.367Z,1.20
2017-11-06T04:14:04.824Z,1.00
2017-11-06T04:16:33.117Z,1.17
2017-11-06T04:19:01.392Z,1.10
2017-11-06T04:21:29.872Z,0.97
2017-11-06T04:23:58.175Z,1.20
2017-11-06T04:26:26.643Z,1.00
2017-11-06T04:28:55.076Z,1.10
2017-11-06T04:31:23.383Z,0.90
2017-11-06T04:33:52.636Z,1.20
2017-11-06T04:36:20.935Z,1.30
2017-11-06T04:38:49.331Z,1.00
2017-11-06T04:41:17.882Z,1.30
2017-11-06T04:43:46.371Z,1.37
2017-11-06T04:46:14.660Z,1.20
2017-11-06T04:48:42.931Z,1.00
2017-11-06T04:51:11.248Z,1.20
2017-11-06T04:53:39.530Z,1.13
2017-11-06T04:56:07.855Z,1.10
2017-11-06T04:58:36.158Z,1.20
2017-11-06T05:01:04.469Z,1.30
2017-11-06T05:03:32.771Z,1.23
2017-11-06T05:06:01.096Z,1.20
2017-11-06T05:08:29.376Z,1.17
2017-11-06T05:10:57.706Z,1.10
2017-11-06T05:13:26.021Z,1.37
2017-11-06T05:15:54.315Z,1.10
2017-11-06T05:18:22.585Z,1.00
2017-11-06T05:20:50.876Z,1.20
2017-11-06T05:23:19.133Z,1.20
2017-11-06T05:25:47.651Z,0.90
2017-11-06T05:28:15.990Z,1.07
2017-11-06T05:30:44.307Z,0.90
2017-11-06T05:33:12.587Z,1.33
2017-11-06T05:35:41.017Z,1.10
2017-11-06T05:38:09.464Z,1.17
2017-11-06T05:40:37.776Z,1.10
2017-11-06T05:43:06.065Z,1.10
2017-11-06T05:45:35.364Z,1.10
2017-11-06T05:48:04.363Z,0.90
2017-11-06T05:50:34.464Z,0.90
2017-11-06T05:53:02.988Z,1.30
2017-11-06T05:55:32.953Z,1.10
2017-11-06T05:58:01.295Z,1.20
2017-11-06T06:00:29.642Z,0.90
2017-11-06T06:02:58.312Z,1.10
2017-11-06T06:05:27.423Z,1.00
2017-11-06T06:07:55.756Z,1.00
2017-11-06T06:10:24.691Z,1.10
2017-11-06T06:12:53.924Z,1.00
2017-11-06T06:15:22.492Z,0.90
2017-11-06T06:17:51.099Z,0.93
2017-11-06T06:20:19.411Z,1.00
2017-11-06T06:22:49.535Z,1.30
2017-11-06T06:25:17.999Z,1.30
2017-11-06T06:27:46.834Z,1.63
2017-11-06T06:30:15.190Z,1.50
2017-11-06T06:32:44.064Z,1.53
2017-11-06T06:35:12.960Z,1.57
2017-11-06T06:37:41.235Z,1.30
2017-11-06T06:40:09.641Z,1.63
2017-11-06T06:42:38.587Z,1.40
2017-11-06T06:45:06.961Z,1.43
2017-11-06T06:47:35.293Z,1.50
2017-11-06T06:50:03.629Z,1.70
2017-11-06T06:52:32.024Z,1.70
2017-11-06T06:55:00.383Z,1.73
2017-11-06T06:57:28.700Z,1.60
2017-11-06T06:59:56.963Z,1.90
2017-11-06T07:02:25.327Z,2.30
2017-11-06T07:04:53.679Z,1.70
2017-11-06T07:07:22.191Z,1.67
2017-11-06T07:09:50.639Z,2.30
2017-11-06T07:12:19.011Z,1.77
2017-11-06T07:14:47.328Z,1.87
2017-11-06T07:17:15.628Z,1.90
2017-11-06T07:19:43.887Z,3.03
2017-11-06T07:22:12.186Z,1.93
2017-11-06T07:24:40.453Z,1.70
2017-11-06T07:27:08.776Z,2.07
2017-11-06T07:29:37.076Z,2.03
2017-11-06T07:32:05.416Z,1.80
2017-11-06T07:34:33.819Z,2.00
2017-11-06T07:37:02.115Z,1.97
2017-11-06T07:39:30.586Z,1.80
2017-11-06T07:41:59.438Z,2.10
2017-11-06T07:44:28.047Z,1.97
2017-11-06T07:46:56.464Z,2.13
2017-11-06T07:49:25.445Z,2.00
2017-11-06T07:51:53.927Z,2.37
2017-11-06T07:54:22.276Z,1.63
2017-11-06T07:56:51.200Z,1.73
2017-11-06T07:59:19.497Z,2.20
2017-11-06T08:01:48.190Z,2.03
2017-11-06T08:04:16.635Z,1.77
2017-11-06T08:06:45.125Z,1.97
2017-11-06T08:09:13.384Z,1.73
2017-11-06T08:11:41.892Z,2.00
2017-11-06T08:14:10.191Z,2.17
2017-11-06T08:16:38.506Z,2.27
2017-11-06T08:19:06.823Z,1.77
2017-11-06T08:21:35.171Z,2.23
2017-11-06T08:24:03.489Z,2.33
2017-11-06T08:26:31.882Z,2.00
2017-11-06T08:29:00.170Z,2.03
2017-11-06T08:31:29.311Z,2.07
2017-11-06T08:33:57.875Z,1.80
2017-11-06T08:36:26.183Z,2.20
2017-11-06T08:38:54.451Z,1.70
2017-11-06T08:41:22.814Z,1.77
2017-11-06T08:43:51.095Z,1.67
2017-11-06T08:46:19.383Z,1.77
2017-11-06T08:48:47.666Z,1.67
2017-11-06T08:51:16.003Z,1.60
2017-11-06T08:53:44.387Z,1.87
2017-11-06T08:56:12.910Z,2.37
2017-11-06T08:58:41.317Z,2.07
2017-11-06T09:01:09.916Z,1.80
2017-11-06T09:03:38.231Z,1.83
2017-11-06T09:06:06.540Z,1.90
2017-11-06T09:08:34.823Z,1.60
2017-11-06T09:11:03.140Z,1.60
2017-11-06T09:13:31.443Z,1.80
2017-11-06T09:15:59.808Z,2.30
2017-11-06T09:18:28.255Z,1.77
2017-11-06T09:20:56.551Z,1.77
2017-11-06T09:23:25.015Z,1.97
2017-11-06T09:25:53.319Z,1.60
2017-11-06T09:28:21.741Z,1.80
2017-11-06T09:30:50.068Z,1.33
2017-11-06T09:33:18.329Z,1.87
2017-11-06T09:35:46.616Z,1.70
2017-11-06T09:38:15.128Z,1.80
2017-11-06T09:40:43.600Z,1.50
2017-11-06T09:43:11.883Z,2.40
2017-11-06T09:45:40.197Z,1.70
2017-11-06T09:48:08.599Z,1.70
2017-11-06T09:50:37.215Z,1.73
2017-11-06T09:53:05.526Z,1.63
2017-11-06T09:55:33.836Z,1.90
2017-11-06T09:58:02.174Z,1.53
2017-11-06T10:00:30.667Z,1.67
2017-11-06T10:02:59.050Z,1.80
2017-11-06T10:05:27.383Z,1.43
2017-11-06T10:07:55.692Z,1.57
2017-11-06T10:10:24.051Z,1.57
2017-11-06T10:12:52.333Z,1.50
2017-11-06T10:15:20.666Z,1.90
2017-11-06T10:17:49.033Z,1.40
2017-11-06T10:20:17.372Z,1.40
2017-11-06T10:22:45.741Z,1.50
2017-11-06T10:25:14.201Z,1.50
2017-11-06T10:27:42.644Z,1.40
2017-11-06T10:30:10.952Z,1.53
2017-11-06T10:32:39.317Z,1.53
2017-11-06T10:35:07.631Z,1.53
2017-11-06T10:37:35.952Z,1.63
2017-11-06T10:40:04.273Z,1.53
2017-11-06T10:42:32.556Z,1.40
2017-11-06T10:45:00.915Z,1.70
2017-11-06T10:47:29.729Z,1.60
2017-11-06T10:49:58.588Z,1.50
2017-11-06T10:52:27.083Z,1.83
2017-11-06T10:54:58.104Z,1.30
2017-11-06T10:57:26.457Z,1.57
2017-11-06T10:59:56.188Z,1.50
2017-11-06T11:02:25.045Z,1.30
2017-11-06T11:04:54.971Z,1.40
2017-11-06T11:07:24.784Z,1.53
2017-11-06T11:09:54.262Z,1.67
2017-11-06T11:12:22.737Z,1.47
2017-11-06T11:14:51.019Z,1.40
2017-11-06T11:17:19.468Z,1.50
2017-11-06T11:19:47.719Z,1.50
2017-11-06T11:22:16.160Z,1.50
2017-11-06T11:24:44.460Z,1.27
2017-11-06T11:27:12.779Z,1.40
2017-11-06T11:29:41.224Z,1.20
2017-11-06T11:32:09.744Z,1.50
2017-11-06T11:34:38.200Z,1.40
2017-11-06T11:37:06.572Z,1.40
2017-11-06T11:39:34.860Z,1.30
2017-11-06T11:42:03.233Z,1.40
2017-11-06T11:44:31.502Z,1.47
2017-11-06T11:47:00.021Z,1.20
2017-11-06T11:49:28.296Z,1.60
2017-11-06T11:51:56.797Z,1.60
2017-11-06T11:54:25.240Z,1.40
2017-11-06T11:56:53.758Z,2.20
2017-11-06T11:59:22.049Z,1.90
2017-11-06T12:01:50.418Z,1.63
2017-11-06T12:04:18.738Z,1.70
2017-11-06T12:06:47.046Z,1.93
2017-11-06T12:09:15.503Z,1.57
2017-11-06T12:11:43.899Z,2.00
2017-11-06T12:14:12.180Z,1.70
2017-11-06T12:16:40.483Z,1.50
2017-11-06T12:19:08.756Z,1.70
2017-11-06T12:21:37.059Z,1.70
2017-11-06T12:24:05.457Z,1.93
2017-11-06T12:26:33.827Z,1.80
2017-11-06T12:29:02.100Z,2.20
2017-11-06T12:31:31.624Z,1.90
2017-11-06T12:33:59.880Z,1.67
2017-11-06T12:36:28.199Z,1.87
2017-11-06T12:38:56.660Z,2.00
2017-11-06T12:41:24.993Z,2.30
2017-11-06T12:43:53.292Z,2.07
2017-11-06T12:46:21.590Z,2.03
2017-11-06T12:48:49.982Z,1.77
2017-11-06T12:51:18.275Z,1.70
2017-11-06T12:53:46.727Z,1.60
2017-11-06T12:56:15.051Z,2.00
2017-11-06T12:58:43.361Z,1.73
2017-11-06T13:01:11.654Z,1.80
2017-11-06T13:03:40.052Z,1.87
2017-11-06T13:06:08.359Z,1.90
2017-11-06T13:08:36.635Z,1.83
2017-11-06T13:11:04.999Z,2.67
2017-11-06T13:13:33.316Z,1.70
2017-11-06T13:16:01.615Z,1.37
2017-11-06T13:18:30.076Z,1.43
2017-11-06T13:20:58.393Z,1.80
2017-11-06T13:23:26.833Z,1.87
2017-11-06T13:25:55.386Z,1.50
2017-11-06T13:28:23.651Z,1.70
2017-11-06T13:30:52.041Z,1.80
2017-11-06T13:33:20.487Z,1.80
2017-11-06T13:35:48.797Z,1.43
2017-11-06T13:38:17.097Z,1.50
2017-11-06T13:40:45.387Z,1.40
2017-11-06T13:43:13.676Z,1.30
2017-11-06T13:45:42.799Z,1.80
2017-11-06T13:48:11.185Z,1.60
2017-11-06T13:50:39.561Z,1.47
2017-11-06T13:53:07.873Z,1.50
2017-11-06T13:55:36.155Z,1.60
2017-11-06T13:58:04.552Z,1.40
2017-11-06T14:00:32.851Z,1.70
2017-11-06T14:03:01.163Z,1.70
2017-11-06T14:05:29.487Z,1.30
2017-11-06T14:07:57.748Z,1.47
2017-11-06T14:10:26.043Z,1.40
2017-11-06T14:12:54.292Z,1.40
2017-11-06T14:15:22.594Z,1.50
2017-11-06T14:17:50.947Z,1.37
2017-11-06T14:20:19.264Z,1.40
2017-11-06T14:22:47.728Z,1.70
2017-11-06T14:25:16.020Z,1.37
2017-11-06T14:27:44.492Z,1.50
2017-11-06T14:30:12.784Z,1.10
2017-11-06T14:32:41.080Z,1.33
2017-11-06T14:35:09.442Z,1.27
2017-11-06T14:37:37.826Z,1.30
2017-11-06T14:40:06.311Z,1.50
2017-11-06T14:42:34.838Z,1.30
2017-11-06T14:45:03.275Z,1.50
2017-11-06T14:47:31.588Z,1.13
2017-11-06T14:49:59.988Z,1.60
2017-11-06T14:52:28.372Z,1.27
2017-11-06T14:54:56.768Z,1.20
2017-11-06T14:57:25.115Z,1.40
2017-11-06T14:59:53.395Z,1.43
2017-11-06T15:02:22.012Z,1.30
2017-11-06T15:04:50.580Z,1.10
2017-11-06T15:07:18.921Z,1.30
2017-11-06T15:09:47.263Z,1.20
2017-11-06T15:12:15.736Z,1.43
2017-11-06T15:14:44.584Z,1.30
2017-11-06T15:17:12.888Z,1.50
2017-11-06T15:19:41.158Z,1.20
2017-11-06T15:22:09.447Z,1.30
2017-11-06T15:24:37.754Z,1.20
2017-11-06T15:27:06.103Z,1.10
2017-11-06T15:29:34.467Z,1.30
2017-11-06T15:32:02.763Z,1.17
2017-11-06T15:34:31.054Z,1.30
2017-11-06T15:36:59.394Z,1.10
2017-11-06T15:39:27.705Z,1.20
2017-11-06T15:41:56.038Z,1.10
2017-11-06T15:44:24.343Z,1.10
2017-11-06T15:46:52.661Z,1.57
2017-11-06T15:49:21.008Z,1.00
2017-11-06T15:51:49.308Z,1.10
2017-11-06T15:54:17.583Z,1.07
2017-11-06T15:56:46.080Z,0.97
2017-11-06T15:59:14.415Z,1.23
2017-11-06T16:01:42.754Z,1.27
2017-11-06T16:04:11.080Z,1.43
2017-11-06T16:06:39.418Z,1.10
2017-11-06T16:09:07.724Z,1.33
2017-11-06T16:11:36.216Z,1.43
2017-11-06T16:14:04.639Z,1.40
2017-11-06T16:16:32.924Z,1.50
2017-11-06T16:19:01.213Z,1.63
2017-11-06T16:21:29.520Z,1.60
2017-11-06T16:23:57.788Z,1.83
2017-11-06T16:26:26.092Z,1.30
2017-11-06T16:28:54.490Z,1.33
2017-11-06T16:31:22.820Z,1.17
2017-11-06T16:33:51.115Z,1.40
2017-11-06T16:36:19.435Z,1.70
2017-11-06T16:38:47.763Z,1.30
2017-11-06T16:41:16.099Z,2.13
2017-11-06T16:43:44.432Z,1.50
2017-11-06T16:46:12.760Z,1.57
2017-11-06T16:48:41.064Z,1.50
2017-11-06T16:51:09.445Z,1.57
2017-11-06T16:53:37.759Z,1.80
2017-11-06T16:56:06.191Z,1.50
2017-11-06T16:58:34.470Z,1.70
2017-11-06T17:01:02.771Z,1.80
2017-11-06T17:03:31.075Z,1.73
2017-11-06T17:05:59.473Z,2.07
2017-11-06T17:08:27.752Z,2.17
2017-11-06T17:10:56.063Z,1.63
2017-11-06T17:13:24.768Z,1.90
2017-11-06T17:15:53.056Z,2.10
2017-11-06T17:18:21.383Z,1.90
2017-11-06T17:20:49.672Z,2.40
2017-11-06T17:23:17.950Z,2.50
2017-11-06T17:25:46.579Z,1.83
2017-11-06T17:28:15.104Z,2.07
2017-11-06T17:30:43.587Z,2.37
2017-11-06T17:33:11.896Z,2.00
2017-11-06T17:35:40.349Z,2.10
2017-11-06T17:38:08.635Z,1.80
2017-11-06T17:40:36.984Z,2.33
2017-11-06T17:43:05.351Z,1.93
2017-11-06T17:45:33.659Z,1.87
2017-11-06T17:48:01.944Z,2.30
2017-11-06T17:50:30.324Z,2.30
2017-11-06T17:52:58.661Z,1.97
2017-11-06T17:55:27.059Z,2.13
2017-11-06T17:57:55.505Z,2.10
2017-11-06T18:00:23.808Z,1.90
2017-11-06T18:02:52.200Z,1.90
2017-11-06T18:05:20.748Z,2.00
2017-11-06T18:07:49.219Z,1.90
2017-11-06T18:10:17.528Z,2.43
2017-11-06T18:12:45.861Z,2.70
2017-11-06T18:15:14.156Z,2.27
2017-11-06T18:17:44.674Z,1.53
2017-11-06T18:20:13.891Z,1.73
2017-11-06T18:22:43.075Z,1.90
2017-11-06T18:25:11.512Z,1.83
2017-11-06T18:27:39.819Z,2.20
2017-11-06T18:30:08.187Z,2.00
2017-11-06T18:32:37.797Z,1.80
2017-11-06T18:35:14.254Z,2.00
2017-11-06T18:37:42.543Z,2.00
2017-11-06T18:40:10.894Z,2.30
2017-11-06T18:42:39.272Z,2.13
2017-11-06T18:45:07.872Z,2.00
2017-11-06T18:47:36.227Z,2.03
2017-11-06T18:50:04.708Z,2.10
2017-11-06T18:52:33.218Z,2.00
2017-11-06T18:55:01.463Z,1.90
2017-11-06T18:57:31.124Z,1.90
2017-11-06T19:00:02.044Z,2.10
2017-11-06T19:02:34.102Z,2.10
2017-11-06T19:05:04.301Z,1.90
2017-11-06T19:07:34.765Z,2.03
2017-11-06T19:10:04.159Z,2.27
2017-11-06T19:12:33.319Z,2.60
2017-11-06T19:15:01.753Z,2.20
2017-11-06T19:17:30.185Z,3.00
2017-11-06T19:19:58.468Z,2.00
2017-11-06T19:22:26.827Z,2.30
2017-11-06T19:24:55.173Z,2.47
2017-11-06T19:27:24.512Z,2.70
2017-11-06T19:29:52.880Z,2.27
2017-11-06T19:32:21.208Z,3.03
2017-11-06T19:34:49.476Z,2.97
2017-11-06T19:37:17.848Z,2.73
2017-11-06T19:39:46.291Z,2.73
2017-11-06T19:42:14.979Z,2.60
2017-11-06T19:44:43.299Z,3.20
2017-11-06T19:47:12.111Z,2.77
2017-11-06T19:49:40.420Z,2.90
2017-11-06T19:52:09.116Z,3.10
2017-11-06T19:54:37.429Z,2.80
2017-11-06T19:57:05.752Z,3.10
2017-11-06T19:59:34.078Z,3.20
2017-11-06T20:02:02.661Z,3.40
2017-11-06T20:04:31.005Z,3.20
2017-11-06T20:06:59.327Z,3.30
2017-11-06T20:09:28.718Z,3.60
2017-11-06T20:11:57.576Z,3.17
2017-11-06T20:14:25.899Z,3.40
2017-11-06T20:16:54.266Z,2.83
2017-11-06T20:19:22.801Z,3.60
2017-11-06T20:21:51.192Z,3.30
2017-11-06T20:24:19.467Z,3.40
2017-11-06T20:26:47.789Z,4.00
2017-11-06T20:29:16.056Z,2.77
2017-11-06T20:31:44.434Z,3.33
2017-11-06T20:34:12.995Z,4.00
2017-11-06T20:36:41.376Z,3.63
2017-11-06T20:39:09.672Z,3.60
2017-11-06T20:41:38.204Z,3.40
2017-11-06T20:44:06.687Z,3.97
2017-11-06T20:46:35.181Z,3.53
2017-11-06T20:49:03.529Z,3.10
2017-11-06T20:51:32.017Z,3.07
2017-11-06T20:54:00.387Z,3.07
2017-11-06T20:56:28.900Z,3.53
2017-11-06T20:58:57.536Z,3.73
2017-11-06T21:01:25.847Z,3.30
2017-11-06T21:03:54.271Z,3.00
2017-11-06T21:06:22.584Z,3.30
2017-11-06T21:08:51.304Z,2.87
2017-11-06T21:11:19.612Z,3.47
2017-11-06T21:13:47.952Z,3.33
2017-11-06T21:16:16.418Z,3.20
2017-11-06T21:18:44.743Z,3.00
2017-11-06T21:21:15.008Z,3.60
2017-11-06T21:23:43.804Z,3.27
2017-11-06T21:26:12.631Z,3.13
2017-11-06T21:28:42.198Z,3.43
2017-11-06T21:31:10.712Z,2.90
2017-11-06T21:33:39.356Z,3.23
2017-11-06T21:36:07.867Z,3.40
2017-11-06T21:38:37.261Z,3.30
2017-11-06T21:41:05.695Z,2.97
2017-11-06T21:43:34.092Z,3.13
2017-11-06T21:46:02.582Z,3.57
2017-11-06T21:48:31.949Z,3.30
2017-11-06T21:51:02.180Z,3.30
2017-11-06T21:53:35.107Z,3.00
2017-11-06T21:56:04.112Z,2.77
2017-11-06T21:58:32.552Z,3.57
2017-11-06T22:01:01.210Z,3.30
2017-11-06T22:03:29.534Z,4.13
2017-11-06T22:05:57.911Z,3.00
2017-11-06T22:08:26.274Z,3.67
2017-11-06T22:10:54.792Z,2.87
2017-11-06T22:13:23.206Z,3.03
2017-11-06T22:15:51.755Z,2.97
2017-11-06T22:18:20.005Z,2.97
2017-11-06T22:20:48.328Z,2.80
2017-11-06T22:23:16.791Z,3.27
2017-11-06T22:25:45.149Z,3.20
2017-11-06T22:28:13.726Z,3.50
2017-11-06T22:30:42.059Z,2.60
2017-11-06T22:33:10.359Z,2.63
2017-11-06T22:35:38.784Z,2.80
2017-11-06T22:38:07.104Z,2.67
2017-11-06T22:40:35.447Z,3.40
2017-11-06T22:43:04.205Z,2.80
2017-11-06T22:45:32.560Z,3.00
2017-11-06T22:48:00.884Z,3.20
2017-11-06T22:50:29.175Z,2.80
2017-11-06T22:52:58.268Z,3.07
2017-11-06T22:55:27.291Z,2.73
2017-11-06T22:57:56.228Z,2.87
2017-11-06T23:00:25.308Z,2.93
2017-11-06T23:02:55.215Z,3.17
2017-11-06T23:05:24.172Z,2.70
2017-11-06T23:07:53.912Z,2.90
2017-11-06T23:10:24.055Z,2.87
2017-11-06T23:12:54.689Z,2.87
2017-11-06T23:15:23.080Z,2.73
2017-11-06T23:17:51.360Z,2.90
2017-11-06T23:20:19.689Z,2.80
2017-11-06T23:22:48.039Z,2.30
2017-11-06T23:25:16.381Z,2.70
2017-11-06T23:27:44.680Z,2.17
2017-11-06T23:30:13.136Z,2.23
2017-11-06T23:32:42.192Z,2.40
2017-11-06T23:35:10.784Z,3.00
2017-11-06T23:37:39.131Z,2.47
2017-11-06T23:40:07.444Z,3.00
2017-11-06T23:42:35.727Z,2.20
2017-11-06T23:45:04.040Z,2.30
2017-11-06T23:47:32.480Z,2.30
2017-11-06T23:50:00.717Z,2.70
2017-11-06T23:52:29.307Z,2.27
2017-11-06T23:57:32.359Z,2.20
